createdAt,value
2019-04-12T00:00:24.789Z,1.70
2019-04-12T00:02:51.498Z,1.60
2019-04-12T00:05:17.853Z,1.47
2019-04-12T00:07:44.219Z,1.43
2019-04-12T00:10:10.549Z,1.33
2019-04-12T00:12:36.951Z,1.30
2019-04-12T00:15:03.283Z,1.43
2019-04-12T00:17:29.655Z,1.23
2019-04-12T00:19:56.047Z,1.30
2019-04-12T00:22:22.368Z,1.43
2019-04-12T00:24:48.762Z,1.40
2019-04-12T00:27:16.773Z,1.30
2019-04-12T00:29:41.403Z,1.30
2019-04-12T00:32:07.749Z,1.20
2019-04-12T00:34:34.104Z,1.20
2019-04-12T00:37:00.457Z,1.73
2019-04-12T00:39:29.495Z,1.20
2019-04-12T00:41:53.177Z,1.00
2019-04-12T00:44:19.497Z,0.97
2019-04-12T00:46:45.830Z,1.10
2019-04-12T00:49:12.274Z,1.10
2019-04-12T00:51:42.270Z,1.10
2019-04-12T00:54:04.940Z,1.20
2019-04-12T00:56:31.324Z,1.10
2019-04-12T00:58:57.660Z,1.10
2019-04-12T01:01:23.990Z,1.00
2019-04-12T01:03:50.379Z,0.90
2019-04-12T01:06:18.143Z,1.10
2019-04-12T01:08:43.073Z,1.00
2019-04-12T01:11:10.647Z,1.10
2019-04-12T01:13:35.801Z,0.90
2019-04-12T01:16:04.392Z,1.00
2019-04-12T01:18:30.165Z,1.10
2019-04-12T01:20:54.888Z,1.00
2019-04-12T01:23:21.227Z,0.90
2019-04-12T01:25:47.569Z,0.90
2019-04-12T01:28:17.807Z,1.00
2019-04-12T01:30:40.327Z,0.90
2019-04-12T01:33:06.798Z,0.90
2019-04-12T01:35:33.122Z,0.90
2019-04-12T01:37:59.532Z,0.90
2019-04-12T01:40:25.835Z,0.90
2019-04-12T01:42:52.301Z,0.90
2019-04-12T01:45:18.643Z,0.90
2019-04-12T01:47:45.031Z,0.90
2019-04-12T01:50:11.383Z,0.80
2019-04-12T01:52:37.736Z,0.90
2019-04-12T01:55:08.933Z,0.87
2019-04-12T01:57:30.496Z,1.00
2019-04-12T01:59:56.874Z,0.97
2019-04-12T02:02:23.227Z,0.93
2019-04-12T02:04:49.671Z,1.00
2019-04-12T02:07:16.024Z,0.90
2019-04-12T02:09:42.372Z,0.90
2019-04-12T02:12:08.693Z,0.93
2019-04-12T02:14:35.046Z,1.00
2019-04-12T02:17:01.449Z,0.90
2019-04-12T02:19:27.853Z,0.90
2019-04-12T02:21:54.208Z,1.00
2019-04-12T02:24:20.458Z,0.97
2019-04-12T02:26:46.854Z,0.90
2019-04-12T02:29:13.307Z,1.10
2019-04-12T02:31:39.641Z,1.00
2019-04-12T02:34:05.970Z,1.10
2019-04-12T02:36:32.358Z,1.10
2019-04-12T02:38:58.726Z,0.97
2019-04-12T02:41:25.126Z,0.90
2019-04-12T02:43:51.496Z,1.00
2019-04-12T02:46:17.845Z,1.20
2019-04-12T02:48:44.254Z,0.90
2019-04-12T02:51:10.718Z,0.90
2019-04-12T02:53:37.082Z,1.10
2019-04-12T02:56:03.411Z,0.90
2019-04-12T02:58:29.766Z,0.97
2019-04-12T03:00:56.117Z,1.00
2019-04-12T03:03:22.497Z,1.00
2019-04-12T03:05:48.838Z,1.20
2019-04-12T03:08:15.126Z,0.90
2019-04-12T03:10:41.498Z,1.00
2019-04-12T03:13:07.851Z,1.00
2019-04-12T03:15:34.251Z,0.90
2019-04-12T03:18:00.618Z,0.93
2019-04-12T03:20:26.984Z,0.90
2019-04-12T03:22:53.312Z,1.00
2019-04-12T03:25:19.681Z,1.30
2019-04-12T03:27:46.054Z,1.20
2019-04-12T03:30:12.401Z,1.00
2019-04-12T03:32:38.744Z,1.20
2019-04-12T03:35:05.199Z,1.10
2019-04-12T03:37:31.471Z,1.07
2019-04-12T03:39:57.849Z,1.30
2019-04-12T03:42:24.265Z,0.90
2019-04-12T03:44:50.659Z,1.00
2019-04-12T03:47:17.089Z,1.00
2019-04-12T03:49:43.429Z,1.00
2019-04-12T03:52:09.769Z,0.93
2019-04-12T03:54:36.099Z,0.90
2019-04-12T03:57:02.490Z,1.10
2019-04-12T03:59:28.821Z,1.03
2019-04-12T04:01:55.165Z,1.00
2019-04-12T04:04:21.536Z,1.23
2019-04-12T04:06:47.834Z,1.00
2019-04-12T04:09:14.204Z,1.10
2019-04-12T04:11:40.549Z,1.07
2019-04-12T04:14:06.970Z,1.00
2019-04-12T04:16:33.262Z,1.00
2019-04-12T04:18:59.634Z,1.00
2019-04-12T04:21:26.070Z,1.00
2019-04-12T04:23:52.411Z,1.20
2019-04-12T04:26:23.386Z,1.20
2019-04-12T04:28:45.204Z,1.90
2019-04-12T04:31:11.550Z,1.90
2019-04-12T04:33:37.891Z,1.47
2019-04-12T04:36:05.503Z,1.60
2019-04-12T04:38:30.650Z,1.80
2019-04-12T04:40:56.994Z,1.63
2019-04-12T04:43:23.349Z,1.83
2019-04-12T04:45:49.728Z,2.20
2019-04-12T04:48:16.082Z,1.70
2019-04-12T04:50:42.419Z,1.80
2019-04-12T04:53:08.836Z,1.63
2019-04-12T04:55:35.172Z,1.63
2019-04-12T04:58:01.533Z,2.10
2019-04-12T05:00:28.010Z,1.77
2019-04-12T05:02:54.451Z,2.23
2019-04-12T05:05:20.822Z,1.40
2019-04-12T05:07:47.175Z,1.23
2019-04-12T05:10:13.527Z,1.37
2019-04-12T05:12:39.896Z,1.40
2019-04-12T05:15:06.233Z,1.50
2019-04-12T05:17:32.620Z,1.10
2019-04-12T05:19:58.959Z,1.30
2019-04-12T05:22:25.310Z,1.33
2019-04-12T05:24:51.663Z,1.60
2019-04-12T05:27:18.042Z,1.60
2019-04-12T05:29:44.472Z,1.20
2019-04-12T05:32:12.109Z,1.70
2019-04-12T05:34:37.152Z,1.80
2019-04-12T05:37:10.221Z,1.40
2019-04-12T05:39:29.895Z,1.40
2019-04-12T05:41:58.177Z,1.50
2019-04-12T05:44:24.552Z,1.43
2019-04-12T05:46:50.851Z,1.60
2019-04-12T05:49:17.231Z,1.30
2019-04-12T05:51:45.628Z,1.30
2019-04-12T05:54:10.056Z,1.10
2019-04-12T05:56:36.396Z,1.30
2019-04-12T05:59:02.743Z,1.10
2019-04-12T06:01:29.082Z,1.30
2019-04-12T06:03:58.152Z,1.30
2019-04-12T06:06:21.927Z,1.07
2019-04-12T06:08:48.367Z,1.10
2019-04-12T06:11:14.901Z,1.07
2019-04-12T06:13:41.310Z,1.00
2019-04-12T06:16:07.718Z,1.20
2019-04-12T06:18:36.442Z,1.40
2019-04-12T06:21:00.414Z,1.77
2019-04-12T06:23:26.808Z,1.60
2019-04-12T06:25:53.148Z,1.40
2019-04-12T06:28:19.525Z,1.70
2019-04-12T06:30:45.931Z,1.70
2019-04-12T06:33:12.481Z,2.37
2019-04-12T06:35:38.811Z,2.23
2019-04-12T06:38:05.199Z,1.70
2019-04-12T06:40:31.537Z,1.60
2019-04-12T06:42:57.884Z,1.60
2019-04-12T06:45:24.236Z,1.60
2019-04-12T06:47:50.727Z,2.10
2019-04-12T06:50:17.081Z,2.23
2019-04-12T06:52:43.431Z,1.70
2019-04-12T06:55:09.790Z,1.50
2019-04-12T06:57:36.149Z,2.07
2019-04-12T07:00:02.547Z,1.73
2019-04-12T07:02:29.165Z,1.63
2019-04-12T07:04:55.541Z,1.60
2019-04-12T07:07:21.932Z,1.80
2019-04-12T07:09:48.268Z,2.87
2019-04-12T07:12:14.633Z,2.20
2019-04-12T07:14:41.046Z,2.63
2019-04-12T07:17:07.407Z,2.73
2019-04-12T07:19:33.799Z,2.10
2019-04-12T07:22:00.173Z,1.90
2019-04-12T07:24:26.516Z,1.70
2019-04-12T07:26:52.898Z,1.60
2019-04-12T07:29:19.359Z,1.50
2019-04-12T07:31:45.743Z,1.40
2019-04-12T07:34:12.075Z,1.70
2019-04-12T07:36:39.128Z,1.43
2019-04-12T07:39:05.408Z,1.30
2019-04-12T07:41:31.788Z,1.27
2019-04-12T07:43:58.168Z,1.30
2019-04-12T07:46:24.621Z,1.50
2019-04-12T07:48:51.023Z,1.00
2019-04-12T07:51:17.328Z,1.20
2019-04-12T07:53:43.706Z,1.70
2019-04-12T07:56:10.099Z,1.23
2019-04-12T07:58:36.420Z,1.30
2019-04-12T08:01:02.773Z,1.20
2019-04-12T08:03:29.105Z,1.40
2019-04-12T08:05:55.596Z,1.30
2019-04-12T08:08:21.891Z,1.27
2019-04-12T08:10:48.290Z,1.07
2019-04-12T08:13:14.642Z,1.00
2019-04-12T08:15:40.978Z,1.57
2019-04-12T08:18:07.368Z,1.10
2019-04-12T08:20:33.728Z,1.20
2019-04-12T08:23:00.082Z,1.10
2019-04-12T08:25:26.444Z,1.30
2019-04-12T08:27:58.211Z,0.90
2019-04-12T08:30:19.181Z,1.73
2019-04-12T08:32:45.652Z,1.30
2019-04-12T08:35:12.010Z,1.10
2019-04-12T08:37:38.365Z,1.10
2019-04-12T08:40:04.755Z,1.07
2019-04-12T08:42:31.120Z,1.20
2019-04-12T08:44:57.958Z,1.23
2019-04-12T08:47:24.400Z,1.30
2019-04-12T08:49:50.717Z,1.10
2019-04-12T08:52:17.160Z,1.30
2019-04-12T08:54:43.510Z,1.17
2019-04-12T08:57:09.885Z,1.40
2019-04-12T08:59:36.226Z,1.07
2019-04-12T09:02:02.544Z,1.30
2019-04-12T09:04:29.063Z,1.20
2019-04-12T09:06:55.339Z,1.00
2019-04-12T09:09:21.865Z,1.30
2019-04-12T09:11:48.043Z,1.10
2019-04-12T09:14:14.515Z,1.20
2019-04-12T09:16:40.911Z,1.00
2019-04-12T09:19:07.129Z,0.93
2019-04-12T09:21:33.562Z,0.97
2019-04-12T09:23:59.899Z,1.10
2019-04-12T09:26:26.207Z,1.00
2019-04-12T09:28:52.590Z,1.00
2019-04-12T09:31:19.167Z,1.40
2019-04-12T09:33:46.675Z,1.20
2019-04-12T09:36:11.732Z,1.10
2019-04-12T09:38:38.096Z,0.90
2019-04-12T09:41:04.456Z,1.03
2019-04-12T09:43:30.810Z,1.00
2019-04-12T09:45:57.179Z,1.13
2019-04-12T09:48:23.552Z,1.00
2019-04-12T09:50:49.938Z,1.00
2019-04-12T09:53:16.283Z,1.27
2019-04-12T09:55:42.629Z,1.10
2019-04-12T09:58:08.978Z,0.90
2019-04-12T10:00:35.338Z,1.30
2019-04-12T10:03:01.740Z,1.33
2019-04-12T10:05:28.092Z,1.30
2019-04-12T10:07:54.470Z,1.13
2019-04-12T10:10:20.831Z,1.30
2019-04-12T10:12:47.193Z,1.20
2019-04-12T10:15:13.599Z,0.97
2019-04-12T10:17:39.916Z,1.07
2019-04-12T10:20:06.216Z,0.90
2019-04-12T10:22:32.587Z,0.90
2019-04-12T10:24:59.149Z,1.13
2019-04-12T10:27:25.456Z,0.93
2019-04-12T10:29:51.810Z,1.00
2019-04-12T10:32:18.218Z,1.00
2019-04-12T10:34:55.264Z,1.10
2019-04-12T10:37:10.959Z,1.13
2019-04-12T10:39:37.360Z,1.10
2019-04-12T10:42:03.696Z,1.00
2019-04-12T10:44:30.035Z,1.23
2019-04-12T10:46:56.377Z,1.30
2019-04-12T10:49:22.728Z,1.00
2019-04-12T10:51:49.224Z,1.37
2019-04-12T10:54:15.806Z,1.63
2019-04-12T10:56:42.660Z,0.93
2019-04-12T10:59:09.308Z,1.20
2019-04-12T11:01:35.817Z,1.70
2019-04-12T11:04:02.230Z,1.20
2019-04-12T11:06:30.435Z,1.10
2019-04-12T11:08:55.356Z,1.53
2019-04-12T11:11:22.163Z,1.13
2019-04-12T11:13:48.707Z,1.00
2019-04-12T11:16:15.239Z,1.13
2019-04-12T11:18:41.791Z,1.20
2019-04-12T11:21:08.332Z,1.07
2019-04-12T11:23:34.655Z,1.20
2019-04-12T11:26:00.999Z,1.30
2019-04-12T11:28:27.561Z,1.20
2019-04-12T11:30:54.137Z,1.30
2019-04-12T11:33:20.665Z,1.10
2019-04-12T11:35:47.096Z,1.17
2019-04-12T11:38:15.896Z,1.00
2019-04-12T11:40:42.259Z,1.00
2019-04-12T11:43:08.633Z,1.00
2019-04-12T11:45:35.042Z,1.20
2019-04-12T11:48:01.385Z,1.40
2019-04-12T11:50:27.746Z,1.17
2019-04-12T11:52:54.113Z,1.03
2019-04-12T11:55:20.420Z,1.67
2019-04-12T11:57:46.787Z,1.00
2019-04-12T12:00:13.136Z,1.03
2019-04-12T12:02:39.536Z,1.10
2019-04-12T12:05:05.874Z,1.30
2019-04-12T12:07:32.299Z,1.50
2019-04-12T12:09:58.655Z,1.40
2019-04-12T12:12:25.004Z,1.03
2019-04-12T12:14:51.365Z,1.30
2019-04-12T12:17:17.751Z,1.13
2019-04-12T12:19:44.085Z,1.10
2019-04-12T12:22:10.514Z,1.37
2019-04-12T12:24:36.932Z,1.10
2019-04-12T12:27:05.507Z,1.30
2019-04-12T12:29:41.865Z,1.20
2019-04-12T12:31:58.285Z,1.30
2019-04-12T12:34:24.577Z,1.10
2019-04-12T12:36:50.968Z,1.00
2019-04-12T12:39:17.312Z,1.10
2019-04-12T12:41:43.707Z,1.03
2019-04-12T12:44:10.042Z,1.30
2019-04-12T12:46:36.451Z,1.10
2019-04-12T12:49:03.749Z,1.17
2019-04-12T12:51:29.123Z,1.10
2019-04-12T12:53:55.562Z,1.30
2019-04-12T12:56:21.883Z,1.43
2019-04-12T12:58:48.254Z,1.20
2019-04-12T13:01:14.670Z,1.10
2019-04-12T13:03:41.106Z,1.10
2019-04-12T13:06:07.476Z,0.90
2019-04-12T13:08:33.847Z,1.30
2019-04-12T13:11:00.276Z,1.10
2019-04-12T13:13:26.655Z,1.10
2019-04-12T13:15:55.521Z,1.30
2019-04-12T13:18:22.005Z,0.90
2019-04-12T13:20:48.556Z,1.30
2019-04-12T13:23:15.191Z,1.10
2019-04-12T13:25:41.534Z,1.20
2019-04-12T13:28:08.004Z,0.83
2019-04-12T13:30:34.435Z,1.00
2019-04-12T13:33:00.860Z,1.40
2019-04-12T13:35:27.227Z,1.50
2019-04-12T13:37:53.658Z,1.07
2019-04-12T13:40:23.159Z,1.13
2019-04-12T13:42:49.569Z,1.10
2019-04-12T13:45:16.984Z,1.10
2019-04-12T13:47:43.388Z,1.07
2019-04-12T13:50:09.794Z,1.17
2019-04-12T13:52:36.139Z,1.10
2019-04-12T13:55:02.548Z,1.20
2019-04-12T13:57:28.889Z,1.00
2019-04-12T13:59:56.478Z,1.40
2019-04-12T14:02:21.611Z,1.20
2019-04-12T14:04:47.965Z,1.10
2019-04-12T14:07:14.464Z,0.97
2019-04-12T14:09:40.745Z,1.40
2019-04-12T14:12:07.094Z,1.30
2019-04-12T14:14:33.496Z,1.80
2019-04-12T14:16:59.922Z,1.20
2019-04-12T14:19:26.266Z,1.40
2019-04-12T14:21:52.640Z,1.30
2019-04-12T14:24:19.188Z,1.30
2019-04-12T14:26:45.546Z,1.30
2019-04-12T14:29:12.421Z,1.10
2019-04-12T14:31:38.865Z,1.20
2019-04-12T14:34:05.233Z,1.20
2019-04-12T14:36:31.626Z,1.20
2019-04-12T14:38:57.999Z,1.20
2019-04-12T14:41:24.469Z,1.20
2019-04-12T14:43:50.799Z,1.00
2019-04-12T14:46:17.135Z,1.30
2019-04-12T14:48:43.502Z,1.17
2019-04-12T14:51:09.857Z,1.33
2019-04-12T14:53:36.159Z,1.60
2019-04-12T14:56:02.484Z,1.10
2019-04-12T14:58:28.826Z,1.40
2019-04-12T15:00:55.183Z,1.73
2019-04-12T15:03:21.531Z,1.10
2019-04-12T15:05:47.898Z,1.10
2019-04-12T15:08:14.238Z,1.03
2019-04-12T15:10:40.589Z,1.00
2019-04-12T15:13:06.962Z,1.20
2019-04-12T15:15:33.316Z,1.40
2019-04-12T15:17:59.726Z,1.17
2019-04-12T15:20:27.787Z,1.30
2019-04-12T15:22:52.400Z,1.30
2019-04-12T15:25:18.749Z,1.23
2019-04-12T15:27:45.099Z,0.90
2019-04-12T15:30:11.438Z,1.70
2019-04-12T15:32:37.767Z,1.10
2019-04-12T15:35:04.108Z,1.20
2019-04-12T15:37:30.460Z,1.30
2019-04-12T15:39:56.837Z,1.40
2019-04-12T15:42:23.171Z,1.23
2019-04-12T15:44:49.527Z,1.27
2019-04-12T15:47:15.934Z,1.40
2019-04-12T15:49:42.244Z,1.30
2019-04-12T15:52:08.572Z,1.63
2019-04-12T15:54:34.906Z,1.30
2019-04-12T15:57:01.263Z,1.30
2019-04-12T15:59:27.586Z,1.30
2019-04-12T16:01:54.024Z,1.40
2019-04-12T16:04:20.377Z,1.37
2019-04-12T16:06:46.722Z,1.20
2019-04-12T16:09:13.073Z,1.60
2019-04-12T16:11:39.463Z,1.50
2019-04-12T16:14:05.851Z,1.07
2019-04-12T16:16:32.205Z,1.13
2019-04-12T16:18:58.645Z,1.20
2019-04-12T16:21:24.961Z,1.30
2019-04-12T16:23:51.319Z,1.30
2019-04-12T16:26:17.719Z,1.20
2019-04-12T16:28:44.050Z,1.40
2019-04-12T16:31:22.980Z,1.23
2019-04-12T16:33:36.783Z,1.27
2019-04-12T16:36:03.156Z,1.30
2019-04-12T16:38:29.561Z,1.20
2019-04-12T16:40:55.916Z,1.20
2019-04-12T16:43:22.254Z,1.23
2019-04-12T16:45:48.586Z,1.30
2019-04-12T16:48:15.020Z,1.30
2019-04-12T16:50:41.338Z,1.40
2019-04-12T16:53:07.671Z,1.13
2019-04-12T16:55:34.058Z,1.20
2019-04-12T16:58:00.632Z,1.40
2019-04-12T17:00:27.143Z,1.43
2019-04-12T17:02:53.598Z,1.30
2019-04-12T17:05:20.117Z,1.20
2019-04-12T17:07:51.493Z,1.30
2019-04-12T17:10:12.851Z,1.20
2019-04-12T17:12:39.241Z,1.40
2019-04-12T17:15:05.616Z,1.30
2019-04-12T17:17:32.049Z,1.13
2019-04-12T17:19:58.435Z,1.17
2019-04-12T17:22:24.758Z,1.37
2019-04-12T17:24:51.144Z,1.50
2019-04-12T17:27:17.499Z,1.20
2019-04-12T17:29:43.827Z,1.20
2019-04-12T17:32:10.261Z,1.40
2019-04-12T17:34:36.572Z,1.40
2019-04-12T17:37:02.993Z,1.37
2019-04-12T17:39:29.280Z,1.40
2019-04-12T17:41:55.645Z,1.50
2019-04-12T17:44:22.079Z,1.30
2019-04-12T17:46:48.409Z,1.30
2019-04-12T17:49:14.721Z,1.20
2019-04-12T17:51:41.073Z,1.30
2019-04-12T17:54:07.453Z,1.43
2019-04-12T17:56:33.803Z,1.30
2019-04-12T17:59:00.137Z,1.40
2019-04-12T18:01:26.538Z,1.50
2019-04-12T18:03:52.884Z,1.30
2019-04-12T18:06:19.280Z,1.10
2019-04-12T18:08:45.650Z,1.23
2019-04-12T18:11:12.137Z,1.33
2019-04-12T18:13:38.469Z,1.43
2019-04-12T18:16:04.833Z,1.30
2019-04-12T18:18:31.404Z,1.60
2019-04-12T18:20:57.713Z,1.33
2019-04-12T18:23:24.097Z,1.37
2019-04-12T18:25:50.492Z,1.40
2019-04-12T18:28:16.876Z,1.20
2019-04-12T18:30:43.173Z,1.33
2019-04-12T18:33:09.593Z,1.43
2019-04-12T18:35:35.913Z,1.47
2019-04-12T18:38:02.269Z,1.60
2019-04-12T18:40:28.604Z,1.40
2019-04-12T18:42:54.977Z,1.40
2019-04-12T18:45:21.358Z,1.57
2019-04-12T18:47:47.689Z,1.30
2019-04-12T18:50:14.021Z,1.60
2019-04-12T18:52:40.359Z,1.60
2019-04-12T18:55:06.795Z,1.47
2019-04-12T18:57:33.087Z,1.60
2019-04-12T18:59:59.494Z,1.50
2019-04-12T19:02:27.345Z,1.73
2019-04-12T19:04:52.210Z,1.93
2019-04-12T19:07:18.578Z,1.60
2019-04-12T19:09:44.930Z,1.60
2019-04-12T19:12:11.306Z,1.47
2019-04-12T19:14:37.643Z,1.70
2019-04-12T19:17:04.075Z,1.73
2019-04-12T19:19:30.399Z,1.60
2019-04-12T19:21:56.778Z,1.50
2019-04-12T19:24:23.102Z,1.63
2019-04-12T19:26:49.478Z,1.70
2019-04-12T19:29:15.885Z,1.47
2019-04-12T19:31:42.214Z,2.30
2019-04-12T19:34:08.556Z,1.70
2019-04-12T19:36:34.972Z,1.53
2019-04-12T19:39:01.288Z,1.60
2019-04-12T19:41:27.623Z,1.50
2019-04-12T19:43:54.050Z,1.60
2019-04-12T19:46:20.364Z,1.80
2019-04-12T19:48:46.700Z,1.70
2019-04-12T19:51:13.049Z,1.60
2019-04-12T19:53:39.438Z,1.70
2019-04-12T19:56:05.745Z,1.77
2019-04-12T19:58:32.095Z,1.70
2019-04-12T20:00:58.481Z,1.70
2019-04-12T20:03:24.801Z,1.50
2019-04-12T20:05:51.193Z,2.00
2019-04-12T20:08:17.563Z,1.50
2019-04-12T20:10:43.895Z,1.63
2019-04-12T20:13:10.286Z,1.70
2019-04-12T20:15:36.617Z,1.80
2019-04-12T20:18:02.967Z,1.80
2019-04-12T20:20:29.346Z,2.07
2019-04-12T20:22:55.686Z,2.17
2019-04-12T20:25:22.012Z,2.07
2019-04-12T20:27:48.340Z,2.00
2019-04-12T20:30:14.709Z,2.00
2019-04-12T20:32:40.917Z,1.90
2019-04-12T20:35:07.369Z,1.50
2019-04-12T20:37:33.650Z,2.00
2019-04-12T20:39:59.986Z,2.07
2019-04-12T20:42:26.375Z,2.00
2019-04-12T20:44:52.704Z,1.97
2019-04-12T20:47:19.074Z,1.90
2019-04-12T20:49:45.400Z,2.20
2019-04-12T20:52:11.729Z,2.07
2019-04-12T20:54:38.094Z,1.80
2019-04-12T20:57:04.383Z,1.90
2019-04-12T20:59:30.770Z,1.77
2019-04-12T21:01:57.132Z,1.50
2019-04-12T21:04:23.428Z,1.60
2019-04-12T21:06:49.779Z,1.70
2019-04-12T21:09:16.120Z,1.87
2019-04-12T21:11:42.525Z,1.37
2019-04-12T21:14:08.968Z,2.00
2019-04-12T21:16:35.330Z,1.90
2019-04-12T21:19:01.579Z,2.00
2019-04-12T21:21:27.949Z,1.80
2019-04-12T21:23:54.381Z,2.03
2019-04-12T21:26:20.687Z,1.73
2019-04-12T21:28:47.021Z,1.90
2019-04-12T21:31:13.348Z,1.87
2019-04-12T21:33:39.727Z,1.90
2019-04-12T21:36:06.134Z,1.70
2019-04-12T21:38:32.480Z,1.80
2019-04-12T21:40:58.780Z,1.57
2019-04-12T21:43:25.106Z,2.20
2019-04-12T21:45:51.464Z,1.77
2019-04-12T21:48:17.816Z,1.27
2019-04-12T21:50:44.192Z,1.67
2019-04-12T21:53:10.520Z,1.77
2019-04-12T21:55:36.897Z,1.80
2019-04-12T21:58:03.257Z,1.43
2019-04-12T22:00:29.678Z,2.20
2019-04-12T22:02:56.021Z,1.47
2019-04-12T22:05:22.352Z,1.83
2019-04-12T22:07:48.753Z,2.00
2019-04-12T22:10:15.093Z,1.83
2019-04-12T22:12:41.422Z,1.60
2019-04-12T22:15:07.760Z,1.53
2019-04-12T22:17:34.131Z,1.50
2019-04-12T22:20:00.468Z,1.80
2019-04-12T22:22:26.841Z,2.10
2019-04-12T22:24:53.204Z,1.70
2019-04-12T22:27:19.536Z,1.77
2019-04-12T22:29:45.881Z,2.00
2019-04-12T22:32:12.234Z,1.60
2019-04-12T22:34:38.603Z,1.80
2019-04-12T22:37:04.936Z,1.83
2019-04-12T22:39:31.305Z,1.67
2019-04-12T22:41:57.661Z,1.70
2019-04-12T22:44:23.983Z,1.57
2019-04-12T22:46:50.302Z,1.50
2019-04-12T22:49:16.638Z,1.60
2019-04-12T22:51:43.022Z,1.63
2019-04-12T22:54:09.350Z,1.50
2019-04-12T22:56:35.740Z,1.73
2019-04-12T22:59:02.070Z,1.70
2019-04-12T23:01:28.392Z,1.70
2019-04-12T23:04:04.864Z,1.50
2019-04-12T23:06:21.311Z,1.60
2019-04-12T23:08:47.651Z,1.90
2019-04-12T23:11:14.002Z,1.40
2019-04-12T23:13:40.490Z,1.50
2019-04-12T23:16:06.779Z,1.67
2019-04-12T23:18:33.181Z,1.30
2019-04-12T23:20:59.541Z,1.60
2019-04-12T23:23:25.909Z,1.90
2019-04-12T23:25:52.242Z,1.60
2019-04-12T23:28:18.628Z,1.50
2019-04-12T23:30:44.955Z,1.30
2019-04-12T23:33:11.316Z,1.60
2019-04-12T23:35:37.644Z,1.47
2019-04-12T23:38:03.938Z,1.67
2019-04-12T23:40:30.377Z,1.60
2019-04-12T23:42:56.756Z,1.40
2019-04-12T23:45:23.122Z,1.80
2019-04-12T23:47:49.500Z,1.63
2019-04-12T23:50:15.847Z,1.40
2019-04-12T23:52:42.229Z,1.40
2019-04-12T23:55:08.568Z,1.80
2019-04-12T23:57:34.889Z,1.60
